createdAt,value
2023-07-15T00:00:51.093Z,250.00
2023-07-15T00:01:51.250Z,248.68
2023-07-15T00:02:51.171Z,246.90
2023-07-15T00:03:51.213Z,248.90
2023-07-15T00:04:51.195Z,249.12
2023-07-15T00:05:51.288Z,249.92
2023-07-15T00:06:51.338Z,249.32
2023-07-15T00:07:51.377Z,250.00
2023-07-15T00:08:51.413Z,249.97
2023-07-15T00:09:51.377Z,250.16
2023-07-15T00:10:51.741Z,248.54
2023-07-15T00:11:51.440Z,250.00
2023-07-15T00:12:51.615Z,250.00
2023-07-15T00:13:51.632Z,249.04
2023-07-15T00:14:51.649Z,249.23
2023-07-15T00:15:51.692Z,250.00
2023-07-15T00:16:51.713Z,249.42
2023-07-15T00:17:51.842Z,248.60
2023-07-15T00:18:51.718Z,249.35
2023-07-15T00:19:51.699Z,249.65
2023-07-15T00:20:51.745Z,250.00
2023-07-15T00:21:51.723Z,249.33
2023-07-15T00:22:51.838Z,245.94
2023-07-15T00:23:51.792Z,244.84
2023-07-15T00:24:51.870Z,244.59
2023-07-15T00:25:51.916Z,243.92
2023-07-15T00:26:51.913Z,244.19
2023-07-15T00:27:51.910Z,246.37
2023-07-15T00:28:51.959Z,247.39
2023-07-15T00:29:51.986Z,244.45
2023-07-15T00:30:52.041Z,245.53
2023-07-15T00:31:52.156Z,245.85
2023-07-15T00:32:52.190Z,246.54
2023-07-15T00:33:52.179Z,248.62
2023-07-15T00:34:52.255Z,247.82
2023-07-15T00:35:52.274Z,249.92
2023-07-15T00:36:52.303Z,250.00
2023-07-15T00:37:52.376Z,249.95
2023-07-15T00:38:52.394Z,249.23
2023-07-15T00:39:52.463Z,249.59
2023-07-15T00:40:52.525Z,250.16
2023-07-15T00:41:52.576Z,249.32
2023-07-15T00:42:52.637Z,249.92
2023-07-15T00:43:52.645Z,250.01
2023-07-15T00:44:52.698Z,249.46
2023-07-15T00:45:52.782Z,249.34
2023-07-15T00:46:52.816Z,250.00
2023-07-15T00:47:52.869Z,249.95
2023-07-15T00:48:52.930Z,248.78
2023-07-15T00:49:52.985Z,248.73
2023-07-15T00:50:53.035Z,248.67
2023-07-15T00:51:53.123Z,246.98
2023-07-15T00:52:53.179Z,247.64
2023-07-15T00:53:53.223Z,248.64
2023-07-15T00:54:53.326Z,247.49
2023-07-15T00:55:53.329Z,246.38
2023-07-15T00:56:53.404Z,247.39
2023-07-15T00:57:53.456Z,247.98
2023-07-15T00:58:53.517Z,247.02
2023-07-15T00:59:53.679Z,246.68
2023-07-15T01:00:53.625Z,247.62
2023-07-15T01:01:53.620Z,246.91
2023-07-15T01:02:53.724Z,246.17
2023-07-15T01:03:53.694Z,245.96
2023-07-15T01:04:53.711Z,244.89
2023-07-15T01:05:53.710Z,247.13
2023-07-15T01:06:53.727Z,246.77
2023-07-15T01:07:53.696Z,246.31
2023-07-15T01:08:53.734Z,246.28
2023-07-15T01:09:53.748Z,246.62
2023-07-15T01:10:54.203Z,247.61
2023-07-15T01:11:53.753Z,248.85
2023-07-15T01:12:53.754Z,247.50
2023-07-15T01:13:53.772Z,248.69
2023-07-15T01:14:53.740Z,248.09
2023-07-15T01:15:53.806Z,248.70
2023-07-15T01:16:53.721Z,249.52
2023-07-15T01:17:53.813Z,249.65
2023-07-15T01:18:53.724Z,249.59
2023-07-15T01:19:53.729Z,249.53
2023-07-15T01:20:53.755Z,250.00
2023-07-15T01:21:53.779Z,249.55
2023-07-15T01:22:53.749Z,247.63
2023-07-15T01:23:53.749Z,247.14
2023-07-15T01:24:53.765Z,246.33
2023-07-15T01:25:53.748Z,247.47
2023-07-15T01:26:53.772Z,247.08
2023-07-15T01:27:53.731Z,246.53
2023-07-15T01:28:53.771Z,246.55
2023-07-15T01:29:53.778Z,246.34
2023-07-15T01:30:53.913Z,248.56
2023-07-15T01:31:53.828Z,248.33
2023-07-15T01:32:53.895Z,247.09
2023-07-15T01:33:53.835Z,246.94
2023-07-15T01:34:53.857Z,248.67
2023-07-15T01:35:53.924Z,247.71
2023-07-15T01:36:53.952Z,248.40
2023-07-15T01:37:53.928Z,248.85
2023-07-15T01:38:53.917Z,249.20
2023-07-15T01:39:53.902Z,249.42
2023-07-15T01:40:53.953Z,248.72
2023-07-15T01:41:53.962Z,247.47
2023-07-15T01:42:53.977Z,247.81
2023-07-15T01:43:53.969Z,248.15
2023-07-15T01:44:53.978Z,247.22
2023-07-15T01:45:54.019Z,248.07
2023-07-15T01:46:54.133Z,248.55
2023-07-15T01:47:54.113Z,250.00
2023-07-15T01:48:54.106Z,249.39
2023-07-15T01:49:54.111Z,250.00
2023-07-15T01:50:54.194Z,249.36
2023-07-15T01:51:54.159Z,249.11
2023-07-15T01:52:54.186Z,250.00
2023-07-15T01:53:54.198Z,248.77
2023-07-15T01:54:54.264Z,249.53
2023-07-15T01:55:54.281Z,249.16
2023-07-15T01:56:54.322Z,248.39
2023-07-15T01:57:54.333Z,248.90
2023-07-15T01:58:54.354Z,248.41
2023-07-15T01:59:54.428Z,248.70
2023-07-15T02:00:54.582Z,247.68
2023-07-15T02:01:54.540Z,245.93
2023-07-15T02:02:54.741Z,243.86
2023-07-15T02:03:54.752Z,243.18
2023-07-15T02:04:54.669Z,245.94
2023-07-15T02:05:54.762Z,247.71
2023-07-15T02:06:54.847Z,249.38
2023-07-15T02:07:54.832Z,247.93
2023-07-15T02:08:56.679Z,250.00
2023-07-15T02:09:54.918Z,250.00
2023-07-15T02:10:54.869Z,249.79
2023-07-15T02:11:54.867Z,250.00
2023-07-15T02:12:54.856Z,249.06
2023-07-15T02:13:54.843Z,249.25
2023-07-15T02:14:54.860Z,249.94
2023-07-15T02:15:54.848Z,248.81
2023-07-15T02:16:54.900Z,247.74
2023-07-15T02:17:54.905Z,245.56
2023-07-15T02:18:54.827Z,242.99
2023-07-15T02:19:54.835Z,243.45
2023-07-15T02:20:54.875Z,244.44
2023-07-15T02:21:54.808Z,244.80
2023-07-15T02:22:54.819Z,246.91
2023-07-15T02:23:54.777Z,246.83
2023-07-15T02:24:54.806Z,248.81
2023-07-15T02:25:54.776Z,249.34
2023-07-15T02:26:55.700Z,247.82
2023-07-15T02:27:54.792Z,246.73
2023-07-15T02:28:54.778Z,248.40
2023-07-15T02:29:54.763Z,248.60
2023-07-15T02:30:54.769Z,244.62
2023-07-15T02:31:54.747Z,246.98
2023-07-15T02:32:54.769Z,246.57
2023-07-15T02:33:54.728Z,246.92
2023-07-15T02:34:54.691Z,246.26
2023-07-15T02:35:54.690Z,246.07
2023-07-15T02:36:54.702Z,247.00
2023-07-15T02:37:54.697Z,249.13
2023-07-15T02:38:54.657Z,249.98
2023-07-15T02:39:54.653Z,249.06
2023-07-15T02:40:54.674Z,249.95
2023-07-15T02:41:54.701Z,249.81
2023-07-15T02:42:54.619Z,249.74
2023-07-15T02:43:54.625Z,249.53
2023-07-15T02:44:54.640Z,249.73
2023-07-15T02:45:54.662Z,248.85
2023-07-15T02:46:54.658Z,249.19
2023-07-15T02:47:54.649Z,248.61
2023-07-15T02:48:54.650Z,246.45
2023-07-15T02:49:54.594Z,245.15
2023-07-15T02:50:54.615Z,243.54
2023-07-15T02:51:54.591Z,243.61
2023-07-15T02:52:54.578Z,242.57
2023-07-15T02:53:54.547Z,243.31
2023-07-15T02:54:54.565Z,244.16
2023-07-15T02:55:54.561Z,244.34
2023-07-15T02:56:54.573Z,247.09
2023-07-15T02:57:54.627Z,247.86
2023-07-15T02:58:54.581Z,247.47
2023-07-15T02:59:54.575Z,246.24
2023-07-15T03:00:54.608Z,245.83
2023-07-15T03:01:54.703Z,245.49
2023-07-15T03:02:54.684Z,243.46
2023-07-15T03:03:54.609Z,242.01
2023-07-15T03:04:54.682Z,241.62
2023-07-15T03:05:54.630Z,242.16
2023-07-15T03:06:54.648Z,243.68
2023-07-15T03:07:54.623Z,242.14
2023-07-15T03:08:54.652Z,242.46
2023-07-15T03:09:54.624Z,242.95
2023-07-15T03:10:54.670Z,245.01
2023-07-15T03:11:54.668Z,246.44
2023-07-15T03:12:54.671Z,245.70
2023-07-15T03:13:54.671Z,247.42
2023-07-15T03:14:54.680Z,248.66
2023-07-15T03:15:54.713Z,249.26
2023-07-15T03:16:54.757Z,249.75
2023-07-15T03:17:54.751Z,249.97
2023-07-15T03:18:54.713Z,249.78
2023-07-15T03:19:54.763Z,249.52
2023-07-15T03:20:54.715Z,249.60
2023-07-15T03:21:54.807Z,248.19
2023-07-15T03:22:54.771Z,247.85
2023-07-15T03:23:54.718Z,247.57
2023-07-15T03:24:54.725Z,246.95
2023-07-15T03:25:54.729Z,245.88
2023-07-15T03:26:54.778Z,243.07
2023-07-15T03:27:54.758Z,241.94
2023-07-15T03:28:54.785Z,241.69
2023-07-15T03:29:54.813Z,241.15
2023-07-15T03:30:54.846Z,241.58
2023-07-15T03:31:54.869Z,240.75
2023-07-15T03:32:55.081Z,241.20
2023-07-15T03:33:54.924Z,241.46
2023-07-15T03:34:54.931Z,240.02
2023-07-15T03:35:54.940Z,241.62
2023-07-15T03:36:54.942Z,243.17
2023-07-15T03:37:54.984Z,243.07
2023-07-15T03:38:54.957Z,243.13
2023-07-15T03:39:54.996Z,243.41
2023-07-15T03:40:55.028Z,244.97
2023-07-15T03:41:55.039Z,246.32
2023-07-15T03:42:55.083Z,247.07
2023-07-15T03:43:55.086Z,248.88
2023-07-15T03:44:55.127Z,249.22
2023-07-15T03:45:55.203Z,249.93
2023-07-15T03:46:55.163Z,249.94
2023-07-15T03:47:55.210Z,249.74
2023-07-15T03:48:55.197Z,249.03
2023-07-15T03:49:55.253Z,249.74
2023-07-15T03:50:55.217Z,248.70
2023-07-15T03:51:55.275Z,247.16
2023-07-15T03:52:55.265Z,245.55
2023-07-15T03:53:55.291Z,244.80
2023-07-15T03:54:55.318Z,244.03
2023-07-15T03:55:55.356Z,242.98
2023-07-15T03:56:55.385Z,243.21
2023-07-15T03:57:55.417Z,242.89
2023-07-15T03:58:55.446Z,243.21
2023-07-15T03:59:55.457Z,244.94
2023-07-15T04:00:55.450Z,245.11
2023-07-15T04:01:56.334Z,245.95
2023-07-15T04:02:55.552Z,246.47
2023-07-15T04:03:55.653Z,245.40
2023-07-15T04:04:55.597Z,245.13
2023-07-15T04:05:55.628Z,242.48
2023-07-15T04:06:55.651Z,241.12
2023-07-15T04:07:55.688Z,240.55
2023-07-15T04:08:55.747Z,240.19
2023-07-15T04:09:55.789Z,241.23
2023-07-15T04:10:55.834Z,241.74
2023-07-15T04:11:55.857Z,241.57
2023-07-15T04:12:55.857Z,241.76
2023-07-15T04:13:55.933Z,241.29
2023-07-15T04:14:55.959Z,240.34
2023-07-15T04:15:56.075Z,240.38
2023-07-15T04:16:56.057Z,240.48
2023-07-15T04:17:56.143Z,239.98
2023-07-15T04:18:56.152Z,242.00
2023-07-15T04:19:56.162Z,241.80
2023-07-15T04:20:56.280Z,242.41
2023-07-15T04:21:56.299Z,243.57
2023-07-15T04:22:56.342Z,244.37
2023-07-15T04:23:58.585Z,244.19
2023-07-15T04:24:56.414Z,244.30
2023-07-15T04:25:56.471Z,244.96
2023-07-15T04:26:56.529Z,245.54
2023-07-15T04:27:56.686Z,246.62
2023-07-15T04:28:56.642Z,246.22
2023-07-15T04:29:56.725Z,246.06
2023-07-15T04:30:56.758Z,246.14
2023-07-15T04:31:56.834Z,247.06
2023-07-15T04:32:56.880Z,245.97
2023-07-15T04:33:56.898Z,245.66
2023-07-15T04:34:56.955Z,246.61
2023-07-15T04:35:57.034Z,245.48
2023-07-15T04:36:57.117Z,245.24
2023-07-15T04:37:57.112Z,243.69
2023-07-15T04:38:57.112Z,242.46
2023-07-15T04:39:57.147Z,240.76
2023-07-15T04:40:57.229Z,240.95
2023-07-15T04:41:57.322Z,240.90
2023-07-15T04:42:57.337Z,240.41
2023-07-15T04:43:57.355Z,240.46
2023-07-15T04:44:57.354Z,240.31
2023-07-15T04:45:57.492Z,239.75
2023-07-15T04:46:57.470Z,240.45
2023-07-15T04:47:57.540Z,241.36
2023-07-15T04:48:57.550Z,240.38
2023-07-15T04:49:57.600Z,240.64
2023-07-15T04:50:57.619Z,241.36
2023-07-15T04:51:57.656Z,243.41
2023-07-15T04:52:57.680Z,244.32
2023-07-15T04:53:57.721Z,244.73
2023-07-15T04:54:57.810Z,244.42
2023-07-15T04:55:57.776Z,245.05
2023-07-15T04:56:57.865Z,246.93
2023-07-15T04:57:57.884Z,246.26
2023-07-15T04:58:57.867Z,247.87
2023-07-15T04:59:57.933Z,249.46
2023-07-15T05:00:58.098Z,250.00
2023-07-15T05:01:58.019Z,250.00
2023-07-15T05:02:58.051Z,249.85
2023-07-15T05:03:58.099Z,250.00
2023-07-15T05:04:58.085Z,247.60
2023-07-15T05:05:58.105Z,245.59
2023-07-15T05:06:58.126Z,239.84
2023-07-15T05:07:59.275Z,233.38
2023-07-15T05:08:58.164Z,229.59
2023-07-15T05:09:58.183Z,225.31
2023-07-15T05:10:58.195Z,220.48
2023-07-15T05:11:58.258Z,217.94
2023-07-15T05:12:58.267Z,214.45
2023-07-15T05:13:58.243Z,213.89
2023-07-15T05:14:58.259Z,214.57
2023-07-15T05:15:58.315Z,214.05
2023-07-15T05:16:58.307Z,210.06
2023-07-15T05:17:58.340Z,207.20
2023-07-15T05:18:58.334Z,206.58
2023-07-15T05:19:58.360Z,207.30
2023-07-15T05:20:58.371Z,210.10
2023-07-15T05:21:58.383Z,207.63
2023-07-15T05:22:58.397Z,210.64
2023-07-15T05:23:58.373Z,213.23
2023-07-15T05:24:58.385Z,215.21
2023-07-15T05:25:58.460Z,217.89
2023-07-15T05:26:58.425Z,219.45
2023-07-15T05:27:58.423Z,215.30
2023-07-15T05:28:58.384Z,213.39
2023-07-15T05:29:58.386Z,212.05
2023-07-15T05:30:58.421Z,212.60
2023-07-15T05:31:58.497Z,213.43
2023-07-15T05:32:58.444Z,205.57
2023-07-15T05:33:58.422Z,202.57
2023-07-15T05:34:58.420Z,199.37
2023-07-15T05:35:58.441Z,199.46
2023-07-15T05:36:58.472Z,199.50
2023-07-15T05:37:58.442Z,200.75
2023-07-15T05:38:59.274Z,200.58
2023-07-15T05:39:58.419Z,200.30
2023-07-15T05:40:58.434Z,198.87
2023-07-15T05:41:58.472Z,198.19
2023-07-15T05:42:58.491Z,198.44
2023-07-15T05:43:58.513Z,198.98
2023-07-15T05:44:58.535Z,199.75
2023-07-15T05:45:58.600Z,194.03
2023-07-15T05:46:58.726Z,190.69
2023-07-15T05:47:58.825Z,190.68
2023-07-15T05:48:58.755Z,191.65
2023-07-15T05:49:58.837Z,189.16
2023-07-15T05:50:58.880Z,188.54
2023-07-15T05:51:58.972Z,184.90
2023-07-15T05:52:58.947Z,185.82
2023-07-15T05:53:58.998Z,186.58
2023-07-15T05:54:59.051Z,185.05
2023-07-15T05:55:59.073Z,182.28
2023-07-15T05:56:59.092Z,181.39
2023-07-15T05:57:59.137Z,181.19
2023-07-15T05:58:59.163Z,180.52
2023-07-15T05:59:59.141Z,178.18
2023-07-15T06:00:59.226Z,174.64
2023-07-15T06:01:59.218Z,173.87
2023-07-15T06:02:59.290Z,174.79
2023-07-15T06:03:59.372Z,175.77
2023-07-15T06:04:59.268Z,173.97
2023-07-15T06:05:59.297Z,172.71
2023-07-15T06:06:59.284Z,171.20
2023-07-15T06:07:59.293Z,170.82
2023-07-15T06:08:59.278Z,168.74
2023-07-15T06:09:59.332Z,169.33
2023-07-15T06:10:59.316Z,169.42
2023-07-15T06:11:59.696Z,168.30
2023-07-15T06:12:59.294Z,165.35
2023-07-15T06:13:59.309Z,163.42
2023-07-15T06:14:59.322Z,160.58
2023-07-15T06:15:59.457Z,160.70
2023-07-15T06:16:59.504Z,158.51
2023-07-15T06:17:59.604Z,159.69
2023-07-15T06:18:59.578Z,159.58
2023-07-15T06:19:59.625Z,156.21
2023-07-15T06:20:59.703Z,157.39
2023-07-15T06:21:59.764Z,157.72
2023-07-15T06:22:59.876Z,159.25
2023-07-15T06:23:59.872Z,159.32
2023-07-15T06:24:59.897Z,157.83
2023-07-15T06:25:59.973Z,160.53
2023-07-15T06:27:00.000Z,157.89
2023-07-15T06:27:59.989Z,149.36
2023-07-15T06:29:00.046Z,150.92
2023-07-15T06:30:00.065Z,151.47
2023-07-15T06:31:00.194Z,152.18
2023-07-15T06:32:00.200Z,153.14
2023-07-15T06:33:00.315Z,156.43
2023-07-15T06:34:00.287Z,158.68
2023-07-15T06:35:00.332Z,160.54
2023-07-15T06:36:00.370Z,160.78
2023-07-15T06:37:00.409Z,158.45
2023-07-15T06:38:00.430Z,152.88
2023-07-15T06:39:00.511Z,155.50
2023-07-15T06:40:00.502Z,158.82
2023-07-15T06:41:00.517Z,160.25
2023-07-15T06:42:00.588Z,156.54
2023-07-15T06:43:00.625Z,157.12
2023-07-15T06:44:00.575Z,158.26
2023-07-15T06:45:00.665Z,162.72
2023-07-15T06:46:00.638Z,162.91
2023-07-15T06:47:00.710Z,158.02
2023-07-15T06:48:00.700Z,155.52
2023-07-15T06:49:00.734Z,157.06
2023-07-15T06:50:00.722Z,164.20
2023-07-15T06:51:00.756Z,166.92
2023-07-15T06:52:00.769Z,164.57
2023-07-15T06:53:00.776Z,168.10
2023-07-15T06:54:00.771Z,162.98
2023-07-15T06:55:00.786Z,158.15
2023-07-15T06:56:09.866Z,160.14
2023-07-15T06:57:01.854Z,154.43
2023-07-15T06:58:00.871Z,150.52
2023-07-15T06:59:00.875Z,146.27
2023-07-15T07:00:00.856Z,145.16
2023-07-15T07:01:00.925Z,146.40
2023-07-15T07:02:00.860Z,152.36
2023-07-15T07:03:00.883Z,149.98
2023-07-15T07:04:00.818Z,152.05
2023-07-15T07:05:00.808Z,149.87
2023-07-15T07:06:00.888Z,145.21
2023-07-15T07:07:00.838Z,142.41
2023-07-15T07:08:00.820Z,136.29
2023-07-15T07:09:00.858Z,134.18
2023-07-15T07:10:00.906Z,136.61
2023-07-15T07:11:00.968Z,143.16
2023-07-15T07:12:01.028Z,135.16
2023-07-15T07:13:01.036Z,131.90
2023-07-15T07:14:01.088Z,122.06
2023-07-15T07:15:01.119Z,120.17
2023-07-15T07:16:01.150Z,121.48
2023-07-15T07:17:01.207Z,128.19
2023-07-15T07:18:01.272Z,127.77
2023-07-15T07:19:01.257Z,126.01
2023-07-15T07:20:03.818Z,121.53
2023-07-15T07:21:01.305Z,124.07
2023-07-15T07:22:01.288Z,127.72
2023-07-15T07:23:01.454Z,130.68
2023-07-15T07:24:01.227Z,144.64
2023-07-15T07:25:01.261Z,155.60
2023-07-15T07:26:01.249Z,154.90
2023-07-15T07:27:01.200Z,150.77
2023-07-15T07:28:01.251Z,152.47
2023-07-15T07:29:01.195Z,144.46
2023-07-15T07:30:01.280Z,131.50
2023-07-15T07:31:01.250Z,134.72
2023-07-15T07:32:01.188Z,130.62
2023-07-15T07:33:01.205Z,119.92
2023-07-15T07:34:01.147Z,115.00
2023-07-15T07:35:01.195Z,114.02
2023-07-15T07:36:01.177Z,114.12
2023-07-15T07:37:02.956Z,115.96
2023-07-15T07:38:01.173Z,115.07
2023-07-15T07:39:01.148Z,111.76
2023-07-15T07:40:01.138Z,111.71
2023-07-15T07:41:01.153Z,113.14
2023-07-15T07:42:01.116Z,108.43
2023-07-15T07:43:01.135Z,109.98
2023-07-15T07:44:01.148Z,113.66
2023-07-15T07:45:01.122Z,114.96
2023-07-15T07:46:01.132Z,113.18
2023-07-15T07:47:01.133Z,117.77
2023-07-15T07:48:01.101Z,121.21
2023-07-15T07:49:01.073Z,126.91
2023-07-15T07:50:01.148Z,125.60
2023-07-15T07:51:01.059Z,116.59
2023-07-15T07:52:01.074Z,115.14
2023-07-15T07:53:01.036Z,116.72
2023-07-15T07:54:01.088Z,97.56
2023-07-15T07:55:01.056Z,100.89
2023-07-15T07:56:01.051Z,96.81
2023-07-15T07:57:01.037Z,99.25
2023-07-15T07:58:01.031Z,99.31
2023-07-15T07:59:01.045Z,96.17
2023-07-15T08:00:01.038Z,101.64
2023-07-15T08:01:00.989Z,102.71
2023-07-15T08:02:00.996Z,86.51
2023-07-15T08:03:01.088Z,90.72
2023-07-15T08:04:01.049Z,94.83
2023-07-15T08:05:00.998Z,98.14
2023-07-15T08:06:00.972Z,88.72
2023-07-15T08:07:00.954Z,82.58
2023-07-15T08:08:00.955Z,76.22
2023-07-15T08:09:00.960Z,84.34
2023-07-15T08:10:00.986Z,84.62
2023-07-15T08:11:00.953Z,93.90
2023-07-15T08:12:00.959Z,85.78
2023-07-15T08:13:00.915Z,89.70
2023-07-15T08:14:00.923Z,89.84
2023-07-15T08:15:00.896Z,79.63
2023-07-15T08:16:00.922Z,70.69
2023-07-15T08:17:00.955Z,68.42
2023-07-15T08:18:00.925Z,70.96
2023-07-15T08:19:00.961Z,81.71
2023-07-15T08:20:00.962Z,77.03
2023-07-15T08:21:00.988Z,82.14
2023-07-15T08:22:01.075Z,91.01
2023-07-15T08:23:01.220Z,82.67
2023-07-15T08:24:01.172Z,79.29
2023-07-15T08:25:01.198Z,55.51
2023-07-15T08:26:01.219Z,31.36
2023-07-15T08:27:01.235Z,32.01
2023-07-15T08:28:01.210Z,28.76
2023-07-15T08:29:01.253Z,42.39
2023-07-15T08:30:01.312Z,37.98
2023-07-15T08:31:01.361Z,37.68
2023-07-15T08:32:01.445Z,41.25
2023-07-15T08:33:01.598Z,41.23
2023-07-15T08:34:01.493Z,44.42
2023-07-15T08:35:01.551Z,38.56
2023-07-15T08:36:01.571Z,36.56
2023-07-15T08:37:01.618Z,37.74
2023-07-15T08:38:01.606Z,33.26
2023-07-15T08:39:01.633Z,25.00
2023-07-15T08:40:01.650Z,29.15
2023-07-15T08:41:01.671Z,34.17
2023-07-15T08:42:01.769Z,40.38
2023-07-15T08:43:01.717Z,33.45
2023-07-15T08:44:01.757Z,31.45
2023-07-15T08:45:01.746Z,31.09
2023-07-15T08:46:01.806Z,35.32
2023-07-15T08:47:01.784Z,30.09
2023-07-15T08:48:01.802Z,28.98
2023-07-15T08:49:01.808Z,29.90
2023-07-15T08:50:01.769Z,35.06
2023-07-15T08:51:01.816Z,27.52
2023-07-15T08:52:01.852Z,26.11
2023-07-15T08:53:01.913Z,27.77
2023-07-15T08:54:02.001Z,31.10
2023-07-15T08:55:01.934Z,36.08
2023-07-15T08:56:01.959Z,35.71
2023-07-15T08:57:01.963Z,35.84
2023-07-15T08:58:01.951Z,40.52
2023-07-15T08:59:01.954Z,36.80
2023-07-15T09:00:01.926Z,28.70
2023-07-15T09:01:01.945Z,24.68
2023-07-15T09:02:02.013Z,27.87
2023-07-15T09:03:02.064Z,43.78
2023-07-15T09:04:02.090Z,46.71
2023-07-15T09:05:02.153Z,44.38
2023-07-15T09:06:02.087Z,44.61
2023-07-15T09:07:02.200Z,49.51
2023-07-15T09:08:02.191Z,53.27
2023-07-15T09:09:02.326Z,50.86
2023-07-15T09:10:02.404Z,45.98
2023-07-15T09:11:02.315Z,49.64
2023-07-15T09:12:02.370Z,48.73
2023-07-15T09:13:02.470Z,51.89
2023-07-15T09:14:02.374Z,49.64
2023-07-15T09:15:02.431Z,45.14
2023-07-15T09:16:02.557Z,34.90
2023-07-15T09:17:02.551Z,44.58
2023-07-15T09:18:02.595Z,46.02
2023-07-15T09:19:02.575Z,47.76
2023-07-15T09:20:02.583Z,50.74
2023-07-15T09:21:02.606Z,52.71
2023-07-15T09:22:02.577Z,55.79
2023-07-15T09:23:02.803Z,47.60
2023-07-15T09:24:02.615Z,43.46
2023-07-15T09:25:02.655Z,48.78
2023-07-15T09:26:02.676Z,45.65
2023-07-15T09:27:02.841Z,48.08
2023-07-15T09:28:02.728Z,33.67
2023-07-15T09:29:02.794Z,47.48
2023-07-15T09:30:02.851Z,44.52
2023-07-15T09:31:02.914Z,52.48
2023-07-15T09:32:02.957Z,49.36
2023-07-15T09:33:02.952Z,43.00
2023-07-15T09:34:02.934Z,38.67
2023-07-15T09:35:03.046Z,39.01
2023-07-15T09:36:03.108Z,49.95
2023-07-15T09:37:03.098Z,27.05
2023-07-15T09:38:03.060Z,29.28
2023-07-15T09:39:03.131Z,37.66
2023-07-15T09:40:03.185Z,41.17
2023-07-15T09:41:03.216Z,47.72
2023-07-15T09:42:03.276Z,53.68
2023-07-15T09:43:03.353Z,49.72
2023-07-15T09:44:03.410Z,51.31
2023-07-15T09:45:03.452Z,60.76
2023-07-15T09:46:03.522Z,65.67
2023-07-15T09:47:03.537Z,63.33
2023-07-15T09:48:03.680Z,66.21
2023-07-15T09:49:03.665Z,50.40
2023-07-15T09:50:03.691Z,46.37
2023-07-15T09:51:03.768Z,58.82
2023-07-15T09:52:03.844Z,49.08
2023-07-15T09:53:03.938Z,56.49
2023-07-15T09:54:03.927Z,55.70
2023-07-15T09:55:03.927Z,38.35
2023-07-15T09:56:03.964Z,39.71
2023-07-15T09:57:04.002Z,56.97
2023-07-15T09:58:03.968Z,51.77
2023-07-15T09:59:03.958Z,52.28
2023-07-15T10:00:04.093Z,41.85
2023-07-15T10:01:04.223Z,27.17
2023-07-15T10:02:04.157Z,29.85
2023-07-15T10:03:04.238Z,14.33
2023-07-15T10:04:04.296Z,14.02
2023-07-15T10:05:04.371Z,25.67
2023-07-15T10:06:04.350Z,24.90
2023-07-15T10:07:04.388Z,39.66
2023-07-15T10:08:04.424Z,46.53
2023-07-15T10:09:04.392Z,41.46
2023-07-15T10:10:04.449Z,53.04
2023-07-15T10:11:04.474Z,57.22
2023-07-15T10:12:04.553Z,55.04
2023-07-15T10:13:04.553Z,54.30
2023-07-15T10:14:04.577Z,59.81
2023-07-15T10:15:04.642Z,46.71
2023-07-15T10:16:04.683Z,28.76
2023-07-15T10:17:04.673Z,38.14
2023-07-15T10:18:04.750Z,57.94
2023-07-15T10:19:04.730Z,68.28
2023-07-15T10:20:04.778Z,68.27
2023-07-15T10:21:04.790Z,73.36
2023-07-15T10:22:04.805Z,60.51
2023-07-15T10:23:04.918Z,57.54
2023-07-15T10:24:04.848Z,56.99
2023-07-15T10:25:04.829Z,50.30
2023-07-15T10:26:04.813Z,46.34
2023-07-15T10:27:04.855Z,47.98
2023-07-15T10:28:04.917Z,43.00
2023-07-15T10:29:04.979Z,40.46
2023-07-15T10:30:05.030Z,38.39
2023-07-15T10:31:06.651Z,36.96
2023-07-15T10:32:05.128Z,29.65
2023-07-15T10:33:05.175Z,26.64
2023-07-15T10:34:05.129Z,35.92
2023-07-15T10:35:05.156Z,53.74
2023-07-15T10:36:05.228Z,46.93
2023-07-15T10:37:05.304Z,70.25
2023-07-15T10:38:05.345Z,50.85
2023-07-15T10:39:05.390Z,28.18
2023-07-15T10:40:05.367Z,29.94
2023-07-15T10:41:05.678Z,35.04
2023-07-15T10:42:05.464Z,27.53
2023-07-15T10:43:05.466Z,32.57
2023-07-15T10:44:05.478Z,37.31
2023-07-15T10:45:05.527Z,26.19
2023-07-15T10:46:05.514Z,30.22
2023-07-15T10:47:05.600Z,31.72
2023-07-15T10:48:05.608Z,26.36
2023-07-15T10:49:05.610Z,38.79
2023-07-15T10:50:05.666Z,38.33
2023-07-15T10:51:05.695Z,39.03
2023-07-15T10:52:05.719Z,43.71
2023-07-15T10:53:05.738Z,54.65
2023-07-15T10:54:05.717Z,56.91
2023-07-15T10:55:05.761Z,65.30
2023-07-15T10:56:05.809Z,82.31
2023-07-15T10:57:05.881Z,85.95
2023-07-15T10:58:05.949Z,83.39
2023-07-15T10:59:05.944Z,66.60
2023-07-15T11:00:08.714Z,67.14
2023-07-15T11:01:05.940Z,79.52
2023-07-15T11:02:05.953Z,63.80
2023-07-15T11:03:05.973Z,43.75
2023-07-15T11:04:05.921Z,39.66
2023-07-15T11:05:06.016Z,41.88
2023-07-15T11:06:07.906Z,42.68
2023-07-15T11:07:05.913Z,42.79
2023-07-15T11:08:05.909Z,34.58
2023-07-15T11:09:05.880Z,33.52
2023-07-15T11:10:05.865Z,20.39
2023-07-15T11:11:05.857Z,17.52
2023-07-15T11:12:08.111Z,25.50
2023-07-15T11:13:05.860Z,25.72
2023-07-15T11:14:05.869Z,28.19
2023-07-15T11:15:05.810Z,35.34
2023-07-15T11:16:05.917Z,48.04
2023-07-15T11:17:05.878Z,68.40
2023-07-15T11:18:05.873Z,72.86
2023-07-15T11:19:05.799Z,65.05
2023-07-15T11:20:05.813Z,41.47
2023-07-15T11:21:05.799Z,26.60
2023-07-15T11:22:05.801Z,13.21
2023-07-15T11:23:05.882Z,14.77
2023-07-15T11:24:05.838Z,36.85
2023-07-15T11:25:05.773Z,32.79
2023-07-15T11:26:05.765Z,31.70
2023-07-15T11:27:05.764Z,7.78
2023-07-15T11:28:05.779Z,17.47
2023-07-15T11:29:05.775Z,19.43
2023-07-15T11:30:05.727Z,41.03
2023-07-15T11:31:05.810Z,55.33
2023-07-15T11:32:05.756Z,42.75
2023-07-15T11:33:05.724Z,29.54
2023-07-15T11:34:05.695Z,23.38
2023-07-15T11:35:05.687Z,27.64
2023-07-15T11:36:05.692Z,22.52
2023-07-15T11:37:05.699Z,22.07
2023-07-15T11:38:05.695Z,28.36
2023-07-15T11:39:05.702Z,24.74
2023-07-15T11:40:06.610Z,29.62
2023-07-15T11:41:05.678Z,39.68
2023-07-15T11:42:05.663Z,51.00
2023-07-15T11:43:05.645Z,43.08
2023-07-15T11:44:05.683Z,32.69
2023-07-15T11:45:05.616Z,34.74
2023-07-15T11:46:05.709Z,43.44
2023-07-15T11:47:05.880Z,31.10
2023-07-15T11:48:05.640Z,27.22
2023-07-15T11:49:05.642Z,21.79
2023-07-15T11:50:05.622Z,25.70
2023-07-15T11:51:05.626Z,21.41
2023-07-15T11:52:05.597Z,19.16
2023-07-15T11:53:05.619Z,22.01
2023-07-15T11:54:05.574Z,20.41
2023-07-15T11:55:05.587Z,19.15
2023-07-15T11:56:05.580Z,21.07
2023-07-15T11:57:05.582Z,31.42
2023-07-15T11:58:05.571Z,31.06
2023-07-15T11:59:05.588Z,35.36
2023-07-15T12:00:05.564Z,29.93
2023-07-15T12:01:05.553Z,24.59
2023-07-15T12:02:05.605Z,24.08
2023-07-15T12:03:05.687Z,26.34
2023-07-15T12:04:05.539Z,26.87
2023-07-15T12:05:05.502Z,28.95
2023-07-15T12:06:05.500Z,28.64
2023-07-15T12:07:05.555Z,29.96
2023-07-15T12:08:05.507Z,33.36
2023-07-15T12:09:05.480Z,29.60
2023-07-15T12:10:05.552Z,36.94
2023-07-15T12:11:05.496Z,39.01
2023-07-15T12:12:05.486Z,37.68
2023-07-15T12:13:05.486Z,39.89
2023-07-15T12:14:05.519Z,31.90
2023-07-15T12:15:05.558Z,33.42
2023-07-15T12:16:05.629Z,35.38
2023-07-15T12:17:05.797Z,34.46
2023-07-15T12:18:05.695Z,34.26
2023-07-15T12:19:05.656Z,34.39
2023-07-15T12:20:05.721Z,32.12
2023-07-15T12:21:05.728Z,32.20
2023-07-15T12:22:05.788Z,32.48
2023-07-15T12:23:05.912Z,30.73
2023-07-15T12:24:05.793Z,28.18
2023-07-15T12:25:05.835Z,25.54
2023-07-15T12:26:05.883Z,27.23
2023-07-15T12:27:05.907Z,28.03
2023-07-15T12:28:05.991Z,28.95
2023-07-15T12:29:05.977Z,33.48
2023-07-15T12:30:06.039Z,36.19
2023-07-15T12:31:06.097Z,38.24
2023-07-15T12:32:06.112Z,33.57
2023-07-15T12:33:06.152Z,38.02
2023-07-15T12:34:06.126Z,37.52
2023-07-15T12:35:06.171Z,35.81
2023-07-15T12:36:06.214Z,36.07
2023-07-15T12:37:06.290Z,41.57
2023-07-15T12:38:06.281Z,38.82